sensor_id;sensor_type;location;lat;lon;timestamp;pressure;altitude;pressure_sealevel;temperature;humidity
41366;BME280;27108;44.776;20.476;2022-09-01T00:00:11;99428.53;;;21.64;94.64
41366;BME280;27108;44.776;20.476;2022-09-01T00:02:42;99356.34;;;21.19;95.50
41366;BME280;27108;44.776;20.476;2022-09-01T00:05:11;99484.81;;;22.12;95.37
41366;BME280;27108;44.776;20.476;2022-09-01T00:07:40;99484.06;;;22.11;94.40
41366;BME280;27108;44.776;20.476;2022-09-01T00:10:09;99489.69;;;22.11;95.28
41366;BME280;27108;44.776;20.476;2022-09-01T00:12:38;99475.84;;;22.00;95.30
41366;BME280;27108;44.776;20.476;2022-09-01T00:15:11;99480.59;;;22.05;96.35
41366;BME280;27108;44.776;20.476;2022-09-01T00:17:41;99107.78;;;19.27;95.81
41366;BME280;27108;44.776;20.476;2022-09-01T00:20:10;99483.09;;;22.09;96.31
41366;BME280;27108;44.776;20.476;2022-09-01T00:22:41;99477.56;;;22.16;95.94
41366;BME280;27108;44.776;20.476;2022-09-01T00:25:09;99399.78;;;21.71;95.65
41366;BME280;27108;44.776;20.476;2022-09-01T00:27:38;99266.16;;;20.83;95.14
41366;BME280;27108;44.776;20.476;2022-09-01T00:30:08;99473.44;;;22.31;95.22
41366;BME280;27108;44.776;20.476;2022-09-01T00:32:43;99472.34;;;22.34;94.52
41366;BME280;27108;44.776;20.476;2022-09-01T00:35:13;99471.66;;;22.41;94.62
41366;BME280;27108;44.776;20.476;2022-09-01T00:37:42;99427.38;;;22.07;94.57
41366;BME280;27108;44.776;20.476;2022-09-01T00:40:13;99478.25;;;22.43;94.72
41366;BME280;27108;44.776;20.476;2022-09-01T00:42:43;99433.41;;;22.11;94.31
41366;BME280;27108;44.776;20.476;2022-09-01T00:45:12;99482.69;;;22.39;94.26
41366;BME280;27108;44.776;20.476;2022-09-01T00:47:42;99046.53;;;19.50;93.77
41366;BME280;27108;44.776;20.476;2022-09-01T00:50:14;99480.22;;;22.35;94.34
41366;BME280;27108;44.776;20.476;2022-09-01T00:52:47;99483.16;;;22.30;94.92
41366;BME280;27108;44.776;20.476;2022-09-01T00:55:21;99403.00;;;21.76;94.84
41366;BME280;27108;44.776;20.476;2022-09-01T00:57:51;99477.88;;;22.26;94.87
41366;BME280;27108;44.776;20.476;2022-09-01T01:00:23;99486.88;;;22.25;94.57
41366;BME280;27108;44.776;20.476;2022-09-01T01:02:54;98837.69;;;17.72;95.44
41366;BME280;27108;44.776;20.476;2022-09-01T01:05:26;99488.16;;;22.10;96.43
41366;BME280;27108;44.776;20.476;2022-09-01T01:07:58;99387.03;;;21.31;96.37
41366;BME280;27108;44.776;20.476;2022-09-01T01:10:31;99119.06;;;19.53;96.27
41366;BME280;27108;44.776;20.476;2022-09-01T01:13:05;99497.16;;;22.09;96.51
41366;BME280;27108;44.776;20.476;2022-09-01T01:15:34;99381.84;;;21.35;96.39
41366;BME280;27108;44.776;20.476;2022-09-01T01:18:06;99459.75;;;21.87;95.84
41366;BME280;27108;44.776;20.476;2022-09-01T01:20:36;99501.38;;;22.15;95.93
41366;BME280;27108;44.776;20.476;2022-09-01T01:23:30;99457.91;;;21.90;96.11
41366;BME280;27108;44.776;20.476;2022-09-01T01:26:06;99494.34;;;22.22;95.67
41366;BME280;27108;44.776;20.476;2022-09-01T01:28:42;99467.19;;;22.11;96.09
41366;BME280;27108;44.776;20.476;2022-09-01T01:31:13;99487.69;;;22.33;96.40
41366;BME280;27108;44.776;20.476;2022-09-01T01:33:45;99339.69;;;21.35;95.40
41366;BME280;27108;44.776;20.476;2022-09-01T01:36:18;99486.47;;;22.41;95.49
41366;BME280;27108;44.776;20.476;2022-09-01T01:38:48;99489.94;;;22.48;95.49
41366;BME280;27108;44.776;20.476;2022-09-01T01:41:21;99479.41;;;22.48;94.81
41366;BME280;27108;44.776;20.476;2022-09-01T01:43:54;99474.41;;;22.54;94.48
41366;BME280;27108;44.776;20.476;2022-09-01T01:46:24;99482.63;;;22.52;93.25
41366;BME280;27108;44.776;20.476;2022-09-01T01:48:53;99477.75;;;22.53;93.84
41366;BME280;27108;44.776;20.476;2022-09-01T01:51:23;99480.78;;;22.55;93.69
41366;BME280;27108;44.776;20.476;2022-09-01T01:53:54;99478.19;;;22.57;94.20
41366;BME280;27108;44.776;20.476;2022-09-01T01:56:29;99478.19;;;22.57;94.34
41366;BME280;27108;44.776;20.476;2022-09-01T01:59:03;99473.66;;;22.54;94.48
41366;BME280;27108;44.776;20.476;2022-09-01T02:01:36;99433.16;;;22.23;94.37
41366;BME280;27108;44.776;20.476;2022-09-01T02:04:05;99484.91;;;22.54;93.96
41366;BME280;27108;44.776;20.476;2022-09-01T02:06:37;99489.03;;;22.53;94.37
41366;BME280;27108;44.776;20.476;2022-09-01T02:09:08;99395.56;;;21.99;93.96
41366;BME280;27108;44.776;20.476;2022-09-01T02:11:39;99476.47;;;22.54;94.13
41366;BME280;27108;44.776;20.476;2022-09-01T02:14:09;99482.84;;;22.54;94.00
41366;BME280;27108;44.776;20.476;2022-09-01T02:16:40;99474.94;;;22.53;94.64
41366;BME280;27108;44.776;20.476;2022-09-01T02:19:09;99404.19;;;22.14;94.58
41366;BME280;27108;44.776;20.476;2022-09-01T02:21:39;99473.72;;;22.61;94.14
41366;BME280;27108;44.776;20.476;2022-09-01T02:24:22;99349.16;;;21.71;94.52
41366;BME280;27108;44.776;20.476;2022-09-01T02:26:53;99477.63;;;22.58;94.31
41366;BME280;27108;44.776;20.476;2022-09-01T02:29:27;99454.47;;;22.52;94.42
41366;BME280;27108;44.776;20.476;2022-09-01T02:31:56;99461.44;;;22.51;94.65
41366;BME280;27108;44.776;20.476;2022-09-01T02:34:26;99319.81;;;21.46;94.59
41366;BME280;27108;44.776;20.476;2022-09-01T02:36:56;99476.88;;;22.58;94.30
41366;BME280;27108;44.776;20.476;2022-09-01T02:39:54;99470.09;;;22.53;94.87
41366;BME280;27108;44.776;20.476;2022-09-01T02:42:25;99474.00;;;22.50;95.22
41366;BME280;27108;44.776;20.476;2022-09-01T02:44:56;99473.03;;;22.48;95.13
41366;BME280;27108;44.776;20.476;2022-09-01T02:47:26;99410.66;;;21.88;95.40
41366;BME280;27108;44.776;20.476;2022-09-01T02:49:55;99472.19;;;22.39;95.56
41366;BME280;27108;44.776;20.476;2022-09-01T02:52:24;99469.97;;;22.25;96.13
41366;BME280;27108;44.776;20.476;2022-09-01T02:54:57;99473.75;;;22.27;96.19
41366;BME280;27108;44.776;20.476;2022-09-01T02:57:27;99457.81;;;22.30;96.10
41366;BME280;27108;44.776;20.476;2022-09-01T03:00:04;99461.59;;;22.32;95.36
41366;BME280;27108;44.776;20.476;2022-09-01T03:02:51;99459.53;;;22.33;96.40
41366;BME280;27108;44.776;20.476;2022-09-01T03:05:22;99330.06;;;21.43;96.22
41366;BME280;27108;44.776;20.476;2022-09-01T03:07:56;99267.56;;;21.03;96.51
41366;BME280;27108;44.776;20.476;2022-09-01T03:15:18;99278.00;;;21.16;96.56
41366;BME280;27108;44.776;20.476;2022-09-01T03:17:47;99451.72;;;22.39;96.70
41366;BME280;27108;44.776;20.476;2022-09-01T03:20:16;99460.28;;;22.33;96.15
41366;BME280;27108;44.776;20.476;2022-09-01T03:22:47;99456.94;;;22.35;96.42
41366;BME280;27108;44.776;20.476;2022-09-01T03:25:19;99454.53;;;22.39;96.47
41366;BME280;27108;44.776;20.476;2022-09-01T03:27:51;99449.13;;;22.41;96.35
41366;BME280;27108;44.776;20.476;2022-09-01T03:30:22;99317.53;;;21.44;95.95
41366;BME280;27108;44.776;20.476;2022-09-01T03:32:52;99453.03;;;22.38;96.16
41366;BME280;27108;44.776;20.476;2022-09-01T03:35:22;99375.50;;;21.82;96.30
41366;BME280;27108;44.776;20.476;2022-09-01T03:37:51;99450.69;;;22.29;96.10
41366;BME280;27108;44.776;20.476;2022-09-01T03:40:22;99451.25;;;22.27;96.33
41366;BME280;27108;44.776;20.476;2022-09-01T03:42:56;99450.47;;;22.27;96.65
41366;BME280;27108;44.776;20.476;2022-09-01T03:45:26;99452.88;;;22.23;96.38
41366;BME280;27108;44.776;20.476;2022-09-01T03:47:56;99345.09;;;21.46;96.60
41366;BME280;27108;44.776;20.476;2022-09-01T03:50:27;99450.06;;;22.23;96.55
41366;BME280;27108;44.776;20.476;2022-09-01T03:52:59;99103.16;;;19.75;96.64
41366;BME280;27108;44.776;20.476;2022-09-01T03:55:30;99096.59;;;19.72;97.01
41366;BME280;27108;44.776;20.476;2022-09-01T03:58:05;99272.22;;;20.87;97.60
41366;BME280;27108;44.776;20.476;2022-09-01T04:00:38;99458.41;;;22.15;97.60
41366;BME280;27108;44.776;20.476;2022-09-01T04:03:09;99472.16;;;22.18;97.37
41366;BME280;27108;44.776;20.476;2022-09-01T04:05:42;99202.97;;;20.37;97.30
41366;BME280;27108;44.776;20.476;2022-09-01T04:08:14;99470.75;;;22.12;97.38
41366;BME280;27108;44.776;20.476;2022-09-01T04:10:47;99470.84;;;22.06;97.13
41366;BME280;27108;44.776;20.476;2022-09-01T04:13:19;99048.06;;;19.18;97.27
41366;BME280;27108;44.776;20.476;2022-09-01T04:15:51;99451.84;;;21.99;97.61
41366;BME280;27108;44.776;20.476;2022-09-01T04:18:20;99312.81;;;21.13;98.04
41366;BME280;27108;44.776;20.476;2022-09-01T04:20:51;99449.88;;;22.07;98.38
41366;BME280;27108;44.776;20.476;2022-09-01T04:23:25;99444.84;;;22.13;98.10
41366;BME280;27108;44.776;20.476;2022-09-01T04:26:00;99444.78;;;22.19;98.12
41366;BME280;27108;44.776;20.476;2022-09-01T04:28:38;99449.44;;;22.16;97.76
41366;BME280;27108;44.776;20.476;2022-09-01T04:31:30;99349.81;;;21.51;97.74
41366;BME280;27108;44.776;20.476;2022-09-01T04:34:05;99459.06;;;22.21;98.03
41366;BME280;27108;44.776;20.476;2022-09-01T04:36:43;99465.03;;;22.17;98.26
41366;BME280;27108;44.776;20.476;2022-09-01T04:39:15;99465.22;;;22.19;98.90
41366;BME280;27108;44.776;20.476;2022-09-01T04:41:44;99444.78;;;22.06;98.63
41366;BME280;27108;44.776;20.476;2022-09-01T04:44:14;99467.06;;;22.17;98.93
41366;BME280;27108;44.776;20.476;2022-09-01T04:46:47;99475.81;;;22.13;99.00
41366;BME280;27108;44.776;20.476;2022-09-01T04:49:19;99479.72;;;22.10;99.50
41366;BME280;27108;44.776;20.476;2022-09-01T04:51:52;99232.00;;;20.26;99.83
41366;BME280;27108;44.776;20.476;2022-09-01T04:54:24;99470.22;;;22.00;100.00
41366;BME280;27108;44.776;20.476;2022-09-01T04:56:53;99469.13;;;22.03;100.00
41366;BME280;27108;44.776;20.476;2022-09-01T04:59:24;99471.53;;;21.99;100.00
41366;BME280;27108;44.776;20.476;2022-09-01T05:02:00;99405.41;;;21.45;100.00
41366;BME280;27108;44.776;20.476;2022-09-01T05:04:31;99467.25;;;21.85;100.00
41366;BME280;27108;44.776;20.476;2022-09-01T05:07:03;99541.66;;;21.70;100.00
41366;BME280;27108;44.776;20.476;2022-09-01T05:09:36;99471.25;;;21.63;100.00
41366;BME280;27108;44.776;20.476;2022-09-01T05:12:23;99317.66;;;20.59;100.00
41366;BME280;27108;44.776;20.476;2022-09-01T05:14:53;99390.06;;;21.19;100.00
41366;BME280;27108;44.776;20.476;2022-09-01T05:17:25;99454.38;;;21.63;100.00
41366;BME280;27108;44.776;20.476;2022-09-01T05:19:56;99456.13;;;21.66;100.00
41366;BME280;27108;44.776;20.476;2022-09-01T05:22:25;99451.25;;;21.66;100.00
41366;BME280;27108;44.776;20.476;2022-09-01T05:24:57;99443.56;;;21.67;100.00
41366;BME280;27108;44.776;20.476;2022-09-01T05:27:43;99444.94;;;21.73;100.00
41366;BME280;27108;44.776;20.476;2022-09-01T05:30:17;99360.44;;;21.18;100.00
41366;BME280;27108;44.776;20.476;2022-09-01T05:32:48;99451.00;;;21.78;100.00
41366;BME280;27108;44.776;20.476;2022-09-01T05:35:17;99453.81;;;21.78;100.00
41366;BME280;27108;44.776;20.476;2022-09-01T05:37:47;99337.97;;;20.92;100.00
41366;BME280;27108;44.776;20.476;2022-09-01T05:40:18;99461.06;;;21.73;100.00
41366;BME280;27108;44.776;20.476;2022-09-01T05:42:50;99468.78;;;21.59;100.00
41366;BME280;27108;44.776;20.476;2022-09-01T05:45:23;99472.09;;;21.58;100.00
41366;BME280;27108;44.776;20.476;2022-09-01T05:47:54;99108.69;;;19.16;100.00
41366;BME280;27108;44.776;20.476;2022-09-01T05:50:26;99470.50;;;21.62;100.00
41366;BME280;27108;44.776;20.476;2022-09-01T05:52:55;99474.81;;;21.63;100.00
41366;BME280;27108;44.776;20.476;2022-09-01T05:55:24;99088.41;;;18.97;100.00
41366;BME280;27108;44.776;20.476;2022-09-01T05:57:53;99485.53;;;21.65;100.00
41366;BME280;27108;44.776;20.476;2022-09-01T06:00:24;99489.97;;;21.60;100.00
41366;BME280;27108;44.776;20.476;2022-09-01T06:03:02;99493.75;;;21.49;100.00
41366;BME280;27108;44.776;20.476;2022-09-01T06:05:40;99493.41;;;21.40;100.00
41366;BME280;27108;44.776;20.476;2022-09-01T06:08:11;99297.53;;;19.96;100.00
41366;BME280;27108;44.776;20.476;2022-09-01T06:10:41;99096.31;;;18.36;100.00
41366;BME280;27108;44.776;20.476;2022-09-01T06:13:10;99503.72;;;21.18;100.00
41366;BME280;27108;44.776;20.476;2022-09-01T06:15:44;99501.06;;;21.26;100.00
41366;BME280;27108;44.776;20.476;2022-09-01T06:18:15;99403.38;;;20.28;100.00
41366;BME280;27108;44.776;20.476;2022-09-01T06:20:53;99511.94;;;21.03;100.00
41366;BME280;27108;44.776;20.476;2022-09-01T06:23:24;99430.81;;;20.54;100.00
41366;BME280;27108;44.776;20.476;2022-09-01T06:25:53;99462.91;;;20.72;100.00
41366;BME280;27108;44.776;20.476;2022-09-01T06:28:23;99528.50;;;21.20;100.00
41366;BME280;27108;44.776;20.476;2022-09-01T06:30:52;99526.09;;;21.11;100.00
41366;BME280;27108;44.776;20.476;2022-09-01T06:33:23;99538.09;;;21.11;100.00
41366;BME280;27108;44.776;20.476;2022-09-01T06:35:52;99544.13;;;21.15;100.00
41366;BME280;27108;44.776;20.476;2022-09-01T06:38:23;99540.38;;;21.13;100.00
41366;BME280;27108;44.776;20.476;2022-09-01T06:40:59;99541.00;;;21.19;100.00
41366;BME280;27108;44.776;20.476;2022-09-01T06:43:28;99544.13;;;21.15;100.00
41366;BME280;27108;44.776;20.476;2022-09-01T06:46:00;99287.44;;;19.36;100.00
41366;BME280;27108;44.776;20.476;2022-09-01T06:48:31;99558.00;;;21.13;100.00
41366;BME280;27108;44.776;20.476;2022-09-01T06:51:05;99553.97;;;21.09;100.00
41366;BME280;27108;44.776;20.476;2022-09-01T06:53:46;99562.25;;;21.01;99.73
41366;BME280;27108;44.776;20.476;2022-09-01T06:56:25;99495.78;;;20.58;96.28
41366;BME280;27108;44.776;20.476;2022-09-01T06:58:57;99570.47;;;20.99;93.74
41366;BME280;27108;44.776;20.476;2022-09-01T07:01:30;99564.84;;;20.99;90.85
41366;BME280;27108;44.776;20.476;2022-09-01T07:04:03;99555.63;;;20.85;91.20
41366;BME280;27108;44.776;20.476;2022-09-01T07:06:40;98988.84;;;16.90;90.51
41366;BME280;27108;44.776;20.476;2022-09-01T07:09:46;99567.84;;;20.69;90.38
41366;BME280;27108;44.776;20.476;2022-09-01T07:12:23;99534.84;;;20.37;92.58
41366;BME280;27108;44.776;20.476;2022-09-01T07:14:55;99564.59;;;20.65;94.42
41366;BME280;27108;44.776;20.476;2022-09-01T07:17:48;99571.81;;;20.60;93.65
41366;BME280;27108;44.776;20.476;2022-09-01T07:20:23;99564.59;;;20.65;95.09
41366;BME280;27108;44.776;20.476;2022-09-01T07:22:55;99520.47;;;20.27;98.39
41366;BME280;27108;44.776;20.476;2022-09-01T07:25:34;99484.03;;;20.03;96.13
41366;BME280;27108;44.776;20.476;2022-09-01T07:28:33;99153.56;;;17.86;99.44
41366;BME280;27108;44.776;20.476;2022-09-01T07:31:03;99506.19;;;20.25;99.85
41366;BME280;27108;44.776;20.476;2022-09-01T07:33:58;99571.28;;;20.62;100.00
41366;BME280;27108;44.776;20.476;2022-09-01T07:36:49;99305.97;;;18.47;100.00
41366;BME280;27108;44.776;20.476;2022-09-01T07:39:43;99527.50;;;20.15;100.00
41366;BME280;27108;44.776;20.476;2022-09-01T07:42:34;99424.16;;;19.38;100.00
41366;BME280;27108;44.776;20.476;2022-09-01T07:45:53;99579.38;;;20.46;100.00
41366;BME280;27108;44.776;20.476;2022-09-01T07:48:26;99575.97;;;20.34;100.00
41366;BME280;27108;44.776;20.476;2022-09-01T07:51:18;99597.78;;;20.23;100.00
41366;BME280;27108;44.776;20.476;2022-09-01T07:54:05;99618.31;;;20.12;100.00
41366;BME280;27108;44.776;20.476;2022-09-01T07:56:37;99677.41;;;19.95;100.00
41366;BME280;27108;44.776;20.476;2022-09-01T07:59:10;99614.75;;;19.87;100.00
41366;BME280;27108;44.776;20.476;2022-09-01T08:02:08;99617.34;;;19.55;99.93
41366;BME280;27108;44.776;20.476;2022-09-01T08:04:39;99526.34;;;18.71;100.00
41366;BME280;27108;44.776;20.476;2022-09-01T08:07:13;99603.03;;;19.28;100.00
41366;BME280;27108;44.776;20.476;2022-09-01T08:09:45;99098.09;;;15.94;100.00
41366;BME280;27108;44.776;20.476;2022-09-01T08:12:16;99594.41;;;19.26;100.00
41366;BME280;27108;44.776;20.476;2022-09-01T08:14:48;98985.31;;;15.26;100.00
41366;BME280;27108;44.776;20.476;2022-09-01T08:17:38;99015.41;;;15.33;100.00
41366;BME280;27108;44.776;20.476;2022-09-01T08:20:26;99598.19;;;19.29;100.00
41366;BME280;27108;44.776;20.476;2022-09-01T08:22:59;99611.13;;;19.37;100.00
41366;BME280;27108;44.776;20.476;2022-09-01T08:25:38;99612.41;;;19.36;100.00
41366;BME280;27108;44.776;20.476;2022-09-01T08:28:09;99621.28;;;19.40;100.00
41366;BME280;27108;44.776;20.476;2022-09-01T08:30:41;99625.38;;;19.39;100.00
41366;BME280;27108;44.776;20.476;2022-09-01T08:33:10;99638.19;;;19.29;100.00
41366;BME280;27108;44.776;20.476;2022-09-01T08:35:45;99339.06;;;17.30;100.00
41366;BME280;27108;44.776;20.476;2022-09-01T08:38:16;99409.41;;;17.75;100.00
41366;BME280;27108;44.776;20.476;2022-09-01T08:40:53;99549.53;;;18.60;100.00
41366;BME280;27108;44.776;20.476;2022-09-01T08:43:40;99655.94;;;19.37;100.00
41366;BME280;27108;44.776;20.476;2022-09-01T08:46:16;99385.19;;;17.42;100.00
41366;BME280;27108;44.776;20.476;2022-09-01T08:48:50;99646.16;;;19.20;100.00
41366;BME280;27108;44.776;20.476;2022-09-01T08:52:06;99459.63;;;18.04;100.00
41366;BME280;27108;44.776;20.476;2022-09-01T08:54:43;99633.66;;;19.21;100.00
41366;BME280;27108;44.776;20.476;2022-09-01T08:57:17;99651.78;;;19.20;100.00
41366;BME280;27108;44.776;20.476;2022-09-01T09:00:07;99551.94;;;18.45;100.00
41366;BME280;27108;44.776;20.476;2022-09-01T09:03:05;99641.94;;;19.02;100.00
41366;BME280;27108;44.776;20.476;2022-09-01T09:05:47;99497.19;;;18.14;100.00
41366;BME280;27108;44.776;20.476;2022-09-01T09:08:28;99634.00;;;19.11;100.00
41366;BME280;27108;44.776;20.476;2022-09-01T09:11:04;99498.47;;;18.13;100.00
41366;BME280;27108;44.776;20.476;2022-09-01T09:13:43;99518.69;;;18.30;100.00
41366;BME280;27108;44.776;20.476;2022-09-01T09:16:21;99663.16;;;19.27;100.00
41366;BME280;27108;44.776;20.476;2022-09-01T09:18:52;99653.25;;;19.26;100.00
41366;BME280;27108;44.776;20.476;2022-09-01T09:21:24;99647.16;;;19.22;100.00
41366;BME280;27108;44.776;20.476;2022-09-01T09:23:58;99646.38;;;19.22;100.00
41366;BME280;27108;44.776;20.476;2022-09-01T09:26:29;99568.88;;;18.64;100.00
41366;BME280;27108;44.776;20.476;2022-09-01T09:29:16;99648.16;;;19.25;100.00
41366;BME280;27108;44.776;20.476;2022-09-01T09:31:47;99655.03;;;19.24;100.00
41366;BME280;27108;44.776;20.476;2022-09-01T09:34:29;99660.41;;;19.22;100.00
41366;BME280;27108;44.776;20.476;2022-09-01T09:37:23;99656.59;;;19.19;100.00
41366;BME280;27108;44.776;20.476;2022-09-01T09:40:11;99655.47;;;18.98;100.00
41366;BME280;27108;44.776;20.476;2022-09-01T09:42:57;99652.13;;;18.99;100.00
41366;BME280;27108;44.776;20.476;2022-09-01T09:45:32;99495.56;;;17.77;100.00
41366;BME280;27108;44.776;20.476;2022-09-01T09:48:07;99653.63;;;19.06;100.00
41366;BME280;27108;44.776;20.476;2022-09-01T09:50:38;99225.72;;;16.01;100.00
41366;BME280;27108;44.776;20.476;2022-09-01T09:53:28;99203.16;;;16.22;100.00
41366;BME280;27108;44.776;20.476;2022-09-01T09:56:00;99665.16;;;19.32;100.00
41366;BME280;27108;44.776;20.476;2022-09-01T09:58:35;99668.66;;;19.38;100.00
41366;BME280;27108;44.776;20.476;2022-09-01T10:01:10;99668.16;;;19.40;100.00
41366;BME280;27108;44.776;20.476;2022-09-01T10:03:45;99572.72;;;18.61;100.00
41366;BME280;27108;44.776;20.476;2022-09-01T10:06:31;99677.91;;;19.33;100.00
41366;BME280;27108;44.776;20.476;2022-09-01T10:09:02;99619.41;;;18.83;100.00
41366;BME280;27108;44.776;20.476;2022-09-01T10:11:35;99683.78;;;19.30;100.00
41366;BME280;27108;44.776;20.476;2022-09-01T10:14:06;99372.09;;;17.09;100.00
41366;BME280;27108;44.776;20.476;2022-09-01T10:16:40;99609.34;;;18.57;100.00
41366;BME280;27108;44.776;20.476;2022-09-01T10:19:12;99262.19;;;16.37;100.00
41366;BME280;27108;44.776;20.476;2022-09-01T10:21:42;99579.63;;;18.48;100.00
41366;BME280;27108;44.776;20.476;2022-09-01T10:24:17;99480.06;;;17.70;100.00
41366;BME280;27108;44.776;20.476;2022-09-01T10:27:02;99692.22;;;19.24;100.00
41366;BME280;27108;44.776;20.476;2022-09-01T10:29:40;99672.84;;;19.26;100.00
41366;BME280;27108;44.776;20.476;2022-09-01T10:32:20;99476.97;;;17.91;100.00
41366;BME280;27108;44.776;20.476;2022-09-01T10:35:03;99597.91;;;18.61;100.00
41366;BME280;27108;44.776;20.476;2022-09-01T10:37:33;99677.22;;;19.16;100.00
41366;BME280;27108;44.776;20.476;2022-09-01T10:40:18;99664.53;;;19.09;100.00
41366;BME280;27108;44.776;20.476;2022-09-01T10:42:57;99662.84;;;19.01;100.00
41366;BME280;27108;44.776;20.476;2022-09-01T10:45:32;99672.53;;;18.94;100.00
41366;BME280;27108;44.776;20.476;2022-09-01T10:48:35;99668.25;;;18.87;100.00
41366;BME280;27108;44.776;20.476;2022-09-01T10:51:42;99667.00;;;18.83;100.00
41366;BME280;27108;44.776;20.476;2022-09-01T10:57:49;99653.28;;;18.79;100.00
41366;BME280;27108;44.776;20.476;2022-09-01T11:00:43;99653.44;;;18.98;100.00
41366;BME280;27108;44.776;20.476;2022-09-01T11:03:51;99383.47;;;17.34;100.00
41366;BME280;27108;44.776;20.476;2022-09-01T11:06:51;99633.47;;;19.13;100.00
41366;BME280;27108;44.776;20.476;2022-09-01T11:09:43;99645.06;;;19.28;100.00
41366;BME280;27108;44.776;20.476;2022-09-01T11:12:38;99645.78;;;19.34;100.00
41366;BME280;27108;44.776;20.476;2022-09-01T11:15:37;99463.03;;;18.27;100.00
41366;BME280;27108;44.776;20.476;2022-09-01T11:18:13;99645.06;;;19.64;100.00
41366;BME280;27108;44.776;20.476;2022-09-01T11:20:45;99662.34;;;19.68;100.00
41366;BME280;27108;44.776;20.476;2022-09-01T11:23:22;99348.97;;;17.78;100.00
41366;BME280;27108;44.776;20.476;2022-09-01T11:25:54;99588.34;;;19.52;100.00
41366;BME280;27108;44.776;20.476;2022-09-01T11:28:47;99613.06;;;19.48;100.00
41366;BME280;27108;44.776;20.476;2022-09-01T11:31:20;99659.81;;;20.19;100.00
41366;BME280;27108;44.776;20.476;2022-09-01T11:33:58;99240.53;;;17.29;100.00
41366;BME280;27108;44.776;20.476;2022-09-01T11:36:59;99656.66;;;20.28;100.00
41366;BME280;27108;44.776;20.476;2022-09-01T11:39:38;99658.16;;;20.29;100.00
41366;BME280;27108;44.776;20.476;2022-09-01T11:42:36;99659.44;;;20.28;100.00
41366;BME280;27108;44.776;20.476;2022-09-01T11:45:15;99660.66;;;20.33;100.00
41366;BME280;27108;44.776;20.476;2022-09-01T11:47:46;99663.16;;;20.18;98.49
41366;BME280;27108;44.776;20.476;2022-09-01T11:50:18;99612.50;;;19.85;100.00
41366;BME280;27108;44.776;20.476;2022-09-01T11:52:56;99652.53;;;20.29;100.00
41366;BME280;27108;44.776;20.476;2022-09-01T11:55:30;99631.41;;;20.04;100.00
41366;BME280;27108;44.776;20.476;2022-09-01T11:57:59;99655.13;;;20.27;100.00
41366;BME280;27108;44.776;20.476;2022-09-01T12:00:31;99441.50;;;18.87;100.00
41366;BME280;27108;44.776;20.476;2022-09-01T12:03:05;99206.72;;;17.39;100.00
41366;BME280;27108;44.776;20.476;2022-09-01T12:05:48;99583.91;;;19.87;100.00
41366;BME280;27108;44.776;20.476;2022-09-01T12:08:22;99239.16;;;17.47;100.00
41366;BME280;27108;44.776;20.476;2022-09-01T12:11:02;99667.28;;;20.35;95.80
41366;BME280;27108;44.776;20.476;2022-09-01T12:13:34;99648.31;;;20.42;98.74
41366;BME280;27108;44.776;20.476;2022-09-01T12:16:06;99562.22;;;19.69;97.56
41366;BME280;27108;44.776;20.476;2022-09-01T12:18:52;99668.28;;;20.14;98.04
41366;BME280;27108;44.776;20.476;2022-09-01T12:21:24;99166.19;;;16.85;100.00
41366;BME280;27108;44.776;20.476;2022-09-01T12:24:10;99657.34;;;20.10;99.96
41366;BME280;27108;44.776;20.476;2022-09-01T12:26:39;99680.25;;;20.14;100.00
41366;BME280;27108;44.776;20.476;2022-09-01T12:29:09;99673.59;;;20.17;100.00
41366;BME280;27108;44.776;20.476;2022-09-01T12:31:41;99697.56;;;20.18;100.00
41366;BME280;27108;44.776;20.476;2022-09-01T12:34:35;99680.16;;;20.25;100.00
41366;BME280;27108;44.776;20.476;2022-09-01T12:37:19;99671.97;;;20.27;100.00
41366;BME280;27108;44.776;20.476;2022-09-01T12:39:51;99674.47;;;20.31;100.00
41366;BME280;27108;44.776;20.476;2022-09-01T12:42:28;99676.03;;;20.26;98.23
41366;BME280;27108;44.776;20.476;2022-09-01T12:45:00;99624.28;;;19.78;100.00
41366;BME280;27108;44.776;20.476;2022-09-01T12:47:55;99686.00;;;20.27;100.00
41366;BME280;27108;44.776;20.476;2022-09-01T12:50:42;99679.16;;;20.23;100.00
41366;BME280;27108;44.776;20.476;2022-09-01T12:53:28;99678.16;;;20.20;98.91
41366;BME280;27108;44.776;20.476;2022-09-01T12:56:14;99673.28;;;20.21;99.81
41366;BME280;27108;44.776;20.476;2022-09-01T12:58:48;99673.06;;;20.19;99.71
41366;BME280;27108;44.776;20.476;2022-09-01T13:01:33;99669.50;;;20.18;98.78
41366;BME280;27108;44.776;20.476;2022-09-01T13:04:24;99586.78;;;19.51;96.83
41366;BME280;27108;44.776;20.476;2022-09-01T13:07:05;99579.22;;;19.46;98.72
41366;BME280;27108;44.776;20.476;2022-09-01T13:09:35;99341.13;;;17.71;98.65
41366;BME280;27108;44.776;20.476;2022-09-01T13:12:17;99676.81;;;20.02;100.00
41366;BME280;27108;44.776;20.476;2022-09-01T13:14:51;99666.88;;;20.01;99.46
41366;BME280;27108;44.776;20.476;2022-09-01T13:17:20;99668.09;;;20.06;99.78
41366;BME280;27108;44.776;20.476;2022-09-01T13:19:49;99663.19;;;20.12;99.75
41366;BME280;27108;44.776;20.476;2022-09-01T13:22:19;99667.22;;;20.17;98.20
41366;BME280;27108;44.776;20.476;2022-09-01T13:24:48;99662.66;;;20.14;96.29
41366;BME280;27108;44.776;20.476;2022-09-01T13:27:22;99667.97;;;20.17;97.69
41366;BME280;27108;44.776;20.476;2022-09-01T13:29:50;99667.16;;;20.22;97.41
41366;BME280;27108;44.776;20.476;2022-09-01T13:32:22;99613.41;;;19.94;96.81
41366;BME280;27108;44.776;20.476;2022-09-01T13:34:58;99661.19;;;20.31;96.52
41366;BME280;27108;44.776;20.476;2022-09-01T13:37:28;99142.13;;;16.82;96.74